Latest Weather Observations for Frederick Reef

IDQ60801

Issued at 8:32 am EST Saturday 27 December 2014 (issued every 30 minutes, with the page automatically refreshed every 10 minutes)

About weather observations | Map of weather stations | Latest weather observations for QLD | Other Formats
Station Details ID: 200701 Name: FREDERICK REEF Lat: -20.94 Lon: 154.40 Height: 4.9 m
Data from the previous 72 hours. | See also: Recent months for locations in Queensland
Date/Time
EST
Temp
°C
App
Temp
°C
Dew
Point
Rel
Hum
%
Delta-T
°C
Wind Press
QNH
hPa
Press
MSL
hPa
Rain
since 9 am
mm
Dir
 
Spd
km/h
Gust
km/h
Spd
kts
Gust
kts
27/08:30am 26.8 - - - - E 26 30 14 16 1011.3 - -
27/08:00am 26.9 - - - - E 28 32 15 17 1011.2 1010.9 -
27/07:54am 26.8 - - - - E 28 32 15 17 1011.2 - -
27/07:30am 26.7 - - - - E 2 6 1 3 1011.2 - -
27/07:00am 26.6 - - - - E 2 6 1 3 1011.2 1010.9 -
27/06:30am 26.7 - - - - ESE 26 32 14 17 1011.3 - -
27/06:00am 26.6 - - - - E 30 - 16 - - 1010.8 -
27/05:30am 26.4 - - - - E 30 33 16 18 1010.6 - -
27/05:00am 26.4 - - - - E 32 35 17 19 1010.3 - -
27/04:30am 26.2 - - - - ESE 26 35 14 19 1009.9 - -
27/04:00am 26.2 - - - - CALM 0 4 0 2 1009.7 - -
27/03:30am 26.3 - - - - CALM 0 4 0 2 1009.5 - -
27/03:00am 26.4 - - - - CALM 0 4 0 2 1009.7 - -
27/02:30am 26.4 - - - - E 2 4 1 2 1009.8 - -
27/01:30am 26.4 - - - - CALM 0 6 0 3 1010.2 - -
27/01:00am 26.6 - - - - CALM 0 4 0 2 1010.4 - -
27/12:30am 26.5 - - - - ESE 2 6 1 3 1010.6 - -
27/12:00am 26.5 - - - - E 2 6 1 3 1010.8 - -
 
Date/Time
EST
Temp
°C
App
Temp
°C
Dew
Point
Rel
Hum
%
Delta-T
°C
Wind Press
QNH
hPa
Press
MSL
hPa
Rain
since 9 am
mm
Dir
 
Spd
km/h
Gust
km/h
Spd
kts
Gust
kts
26/11:30pm 26.6 - - - - E 2 4 1 2 1010.9 - -
26/11:00pm 26.9 - - - - E 2 7 1 4 1011.0 - -
26/10:30pm 26.9 - - - - E 2 6 1 3 1011.1 - -
26/10:00pm 26.7 - - - - E 2 7 1 4 1011.1 - -
26/09:30pm 26.8 - - - - E 2 6 1 3 1011.0 - -
26/09:00pm 26.8 - - - - ESE 2 6 1 3 1010.8 - -
26/08:30pm 26.8 - - - - ESE 2 6 1 3 1010.5 - -
26/08:00pm 26.8 - - - - E 2 6 1 3 1010.1 - -
26/07:30pm 26.8 - - - - ESE 2 7 1 4 1010.0 - -
26/07:00pm 26.7 - - - - ESE 2 6 1 3 1009.8 - -
26/06:30pm 26.9 - - - - ESE 28 30 15 16 1009.5 - -
26/06:00pm 26.9 - - - - ESE 28 32 15 17 1009.4 1009.1 -
26/05:30pm 26.8 - - - - ESE 26 30 14 16 1009.2 - -
26/05:00pm 26.9 - - - - ESE 28 30 15 16 1009.1 1008.7 -
26/04:30pm 26.8 - - - - ESE 26 28 14 15 1009.0 - -
26/04:00pm 27.1 - - - - ESE 26 32 14 17 1008.9 1008.7 -
26/03:30pm 27.0 - - - - ESE 26 28 14 15 1009.0 - -
26/03:00pm 26.8 - - - - ESE 24 26 13 14 1009.1 1008.8 -
26/02:30pm 27.0 - - - - ESE 26 28 14 15 1009.3 - -
26/02:00pm 26.8 - - - - ESE 24 28 13 15 1009.4 1009.1 -
26/01:30pm 27.0 - - - - ESE 24 26 13 14 1009.7 - -
26/01:00pm 26.7 - - - - ESE 24 28 13 15 1009.7 - -
26/12:30pm 26.8 - - - - E 2 28 1 15 1009.8 - -
26/12:00pm 26.6 - - - - ESE 2 6 1 3 1009.8 1009.7 -
26/11:30am 26.7 - - - - ESE 2 6 1 3 1010.1 - -
26/11:00am 26.5 - - - - CALM 0 26 0 14 1010.4 1010.0 -
26/10:30am 26.7 - - - - ESE 2 6 1 3 1010.6 - -
26/10:00am 26.5 - - - - ESE 2 26 1 14 1010.7 1010.4 -
26/09:30am 26.7 - - - - ESE 26 28 14 15 1010.7 - -
26/09:00am 26.8 - - - - CALM 0 6 0 3 1010.8 1010.5 -
26/08:30am 26.6 - - - - E 2 30 1 16 1010.7 - -
26/08:00am 26.8 - - - - E 28 32 15 17 1010.6 1010.3 -
26/07:30am 26.6 - - - - ESE 28 32 15 17 1010.5 - -
26/07:00am 26.7 - - - - E 26 30 14 16 1010.4 1010.2 -
26/06:30am 26.5 - - - - ESE 26 30 14 16 1010.3 - -
26/06:00am 26.5 - - - - E 26 30 14 16 1010.0 1009.7 -
26/05:30am 26.3 - - - - E 26 28 14 15 1009.7 - -
26/05:00am 26.2 - - - - E 24 28 13 15 1009.5 - -
26/04:30am 26.2 - - - - E 2 6 1 3 1009.1 - -
26/04:00am 26.2 - - - - E 2 6 1 3 1008.8 - -
26/03:30am 26.3 - - - - CALM 0 4 0 2 1008.7 - -
26/03:00am 26.2 - - - - CALM 0 6 0 3 1008.6 - -
26/02:30am 26.3 - - - - E 2 6 1 3 1008.6 - -
26/02:00am 26.2 - - - - E 2 6 1 3 1008.7 - -
26/01:30am 26.3 - - - - E 2 6 1 3 1008.9 - -
26/01:00am 26.4 - - - - E 2 9 1 5 1009.1 - -
26/12:30am 26.3 - - - - E 2 6 1 3 1009.4 - -
26/12:00am 26.3 - - - - E 2 6 1 3 1009.7 - -
 
Date/Time
EST
Temp
°C
App
Temp
°C
Dew
Point
Rel
Hum
%
Delta-T
°C
Wind Press
QNH
hPa
Press
MSL
hPa
Rain
since 9 am
mm
Dir
 
Spd
km/h
Gust
km/h
Spd
kts
Gust
kts
25/11:30pm 26.2 - - - - CALM 0 4 0 2 1010.3 - -
25/11:00pm 26.4 - - - - CALM 0 6 0 3 1010.4 - -
25/10:30pm 26.4 - - - - CALM 0 4 0 2 1010.5 - -
25/10:00pm 26.4 - - - - E 2 6 1 3 1010.8 - -
25/09:30pm 26.4 - - - - E 2 4 1 2 1010.6 - -
25/09:00pm 26.5 - - - - E 2 4 1 2 1010.5 - -
25/08:30pm 26.5 - - - - CALM 0 4 0 2 1010.1 - -
25/08:00pm 26.5 - - - - ESE 2 6 1 3 1009.9 - -
25/07:30pm 26.7 - - - - ESE 2 6 1 3 1009.7 - -
25/07:00pm 26.6 - - - - ESE 2 7 1 4 1009.4 - -
25/06:30pm 26.5 - - - - ESE 2 6 1 3 1009.3 - -
25/06:00pm 26.6 - - - - ESE 26 30 14 16 1009.0 - -
25/05:30pm 26.6 - - - - ESE 26 30 14 16 1008.8 - -
25/05:00pm 26.7 - - - - ESE 24 28 13 15 1008.6 - -
25/04:30pm 26.9 - - - - ESE 22 24 12 13 1008.5 - -
25/04:00pm 26.8 - - - - ESE 24 26 13 14 1008.4 - -
25/03:30pm 26.7 - - - - SE 26 30 14 16 1008.4 - -
25/03:00pm 26.8 - - - - ESE 26 28 14 15 1008.7 1008.4 -
25/02:30pm 26.6 - - - - ESE 26 28 14 15 1008.8 - -
25/02:00pm 26.7 - - - - ESE 24 28 13 15 1009.1 1008.8 -
25/01:30pm 26.6 - - - - SE 26 28 14 15 1009.4 - -
25/01:00pm 26.6 - - - - SE 28 30 15 16 1009.6 - -
25/12:30pm 26.5 - - - - ESE 28 32 15 17 1009.8 - -
25/12:00pm 26.6 - - - - ESE 28 30 15 16 1010.1 1009.7 -
25/11:30am 26.6 - - - - ESE 30 33 16 18 1010.4 - -
25/11:00am 26.5 - - - - ESE 28 32 15 17 1010.7 - -
25/10:30am 26.5 - - - - ESE 26 32 14 17 1010.8 - -
25/10:00am 26.6 - - - - ESE 26 30 14 16 1011.0 - -
25/09:30am 26.6 - - - - ESE 28 32 15 17 1011.0 - -
25/09:00am 26.6 - - - - ESE 28 32 15 17 1010.9 1010.7 -
25/08:30am 26.6 - - - - ESE 28 32 15 17 1010.9 - -
25/08:05am 26.4 - - - - ESE 28 32 15 17 1010.9 - -
25/08:00am 26.3 - - - - ESE 28 6 15 3 1010.8 1010.6 -
25/07:30am 26.3 - - - - ESE 2 30 1 16 1010.8 - -
25/07:10am 26.4 - - - - ESE 28 32 15 17 1010.7 - -
25/07:00am 26.5 - - - - E 2 6 1 3 1010.7 1010.4 -
25/06:30am 26.4 - - - - E 2 6 1 3 1010.6 - -
25/06:00am 26.4 - - - - ESE 2 6 1 3 1010.5 1010.3 -
25/05:30am 26.1 - - - - ESE 26 30 14 16 1010.4 - -
25/05:00am 26.0 - - - - ESE 26 32 14 17 1010.1 1009.8 -
25/04:30am 26.1 - - - - ESE 30 33 16 18 1009.8 - -
25/04:00am 26.1 - - - - ESE 30 33 16 18 1009.6 - -
25/03:30am 26.2 - - - - ESE 28 32 15 17 1009.6 - -
25/03:00am 26.3 - - - - ESE 30 33 16 18 1009.7 - -
25/02:30am 26.2 - - - - ESE 32 35 17 19 1009.8 - -
25/02:00am 26.2 - - - - ESE 30 32 16 17 1009.8 - -
25/01:30am 26.2 - - - - ESE 32 35 17 19 1010.0 - -
25/01:00am 26.4 - - - - E 32 35 17 19 1010.2 1009.9 -
25/12:30am 26.4 - - - - ESE 33 37 18 20 1010.7 - -
25/12:00am 26.3 - - - - ESE 35 39 19 21 1011.1 1011.1 -
 
Date/Time
EST
Temp
°C
App
Temp
°C
Dew
Point
Rel
Hum
%
Delta-T
°C
Wind Press
QNH
hPa
Press
MSL
hPa
Rain
since 9 am
mm
Dir
 
Spd
km/h
Gust
km/h
Spd
kts
Gust
kts
24/11:45pm 26.2 - - - - ESE 28 35 15 19 1011.2 - -
24/11:30pm 26.5 - - - - E 2 4 1 2 1011.3 - -
24/11:00pm 26.5 - - - - E 2 6 1 3 1011.4 - -
24/10:30pm 26.4 - - - - ESE 2 6 1 3 1011.6 - -
24/10:00pm 26.7 - - - - ESE 2 6 1 3 1011.7 - -
24/09:30pm 26.5 - - - - ESE 2 6 1 3 1011.8 - -
24/09:00pm 26.6 - - - - ESE 2 7 1 4 1011.7 1011.7 -
24/08:30pm 26.4 - - - - CALM 0 6 0 3 1011.8 - -
24/08:00pm 26.5 - - - - ESE 2 6 1 3 1011.6 - -
24/07:30pm 26.6 - - - - ESE 2 6 1 3 1011.3 - -
24/07:00pm 26.5 - - - - ESE 2 7 1 4 1011.2 - -
24/06:30pm 26.7 - - - - ESE 2 6 1 3 1011.0 - -
24/06:00pm 26.6 - - - - ESE 26 30 14 16 1010.7 1010.5 -
24/05:30pm 26.5 - - - - ESE 28 32 15 17 1010.3 - -
24/05:00pm 26.8 - - - - ESE 26 30 14 16 1010.1 1009.8 -
24/04:30pm 26.8 - - - - ESE 26 30 14 16 1009.8 - -
24/04:00pm 26.5 - - - - ESE 28 32 15 17 1009.6 1009.4 -
24/03:58pm 26.4 - - - - ESE 30 32 16 17 1009.7 - -
24/03:30pm 26.6 - - - - SE 2 6 1 3 1009.6 - -
24/03:00pm 26.5 - - - - ESE 2 6 1 3 1009.6 1009.3 -
24/02:30pm 26.6 - - - - SE 28 30 15 16 1009.6 - -
24/02:00pm 26.5 - - - - SE 30 33 16 18 1009.8 - -
24/01:36pm 26.5 - - - - ESE 28 30 15 16 1010.1 - -
24/01:30pm 26.4 - - - - ESE 2 6 1 3 1010.1 - -
24/01:00pm 26.5 - - - - ESE 2 6 1 3 1010.3 1010.0 -
24/12:30pm 26.3 - - - - ESE 24 30 13 16 1010.4 - -
24/12:00pm 26.2 - - - - ESE 28 30 15 16 1010.4 1010.3 -
24/11:59am 26.3 - - - - ESE 28 30 15 16 1010.4 - -
24/11:30am 26.4 - - - - ESE 2 6 1 3 1010.7 - -
24/11:00am 26.3 - - - - ESE 2 6 1 3 1010.7 - -
24/10:30am 26.5 - - - - ESE 2 6 1 3 1010.9 - -
24/10:00am 26.3 - - - - ESE 2 26 1 14 1011.0 - -
24/09:30am 26.3 - - - - ESE 2 6 1 3 1011.1 - -
24/09:00am 26.4 - - - - ESE 2 6 1 3 1011.1 1011.1 -

Other Formats:

Comma delimited format used in spreadsheet applications
http://www.bom.gov.au/fwo/IDQ60801/IDQ60801.94393.axf

JavaScript Object Notation format (JSON) in row-major order
http://www.bom.gov.au/fwo/IDQ60801/IDQ60801.94393.json